createdAt,value
2023-04-02T00:00:41.990Z,3.80
2023-04-02T00:06:55.321Z,3.00
2023-04-02T00:12:34.371Z,3.40
2023-04-02T00:18:00.381Z,3.10
2023-04-02T00:23:27.422Z,3.50
2023-04-02T00:28:53.220Z,2.60
2023-04-02T00:34:19.802Z,2.90
2023-04-02T00:39:48.156Z,3.10
2023-04-02T00:45:18.699Z,2.80
2023-04-02T00:50:51.661Z,2.70
2023-04-02T00:56:18.311Z,3.50
2023-04-02T01:01:47.169Z,3.40
2023-04-02T01:07:09.704Z,3.10
2023-04-02T01:12:50.236Z,2.70
2023-04-02T01:18:36.147Z,2.90
2023-04-02T01:24:13.306Z,3.10
2023-04-02T01:29:42.094Z,2.80
2023-04-02T01:35:11.510Z,3.30
2023-04-02T01:40:51.347Z,4.20
2023-04-02T01:46:19.120Z,2.70
2023-04-02T01:51:53.189Z,2.50
2023-04-02T01:57:19.288Z,2.80
2023-04-02T02:02:45.030Z,2.70
2023-04-02T02:08:12.822Z,2.80
2023-04-02T02:13:39.460Z,2.50
2023-04-02T02:19:14.371Z,2.50
2023-04-02T02:24:44.321Z,2.60
2023-04-02T02:30:09.097Z,2.70
2023-04-02T02:35:40.843Z,2.20
2023-04-02T02:41:10.569Z,2.60
2023-04-02T02:46:40.889Z,2.70
2023-04-02T02:52:13.718Z,2.10
2023-04-02T02:57:43.040Z,2.10
2023-04-02T03:03:09.594Z,2.40
2023-04-02T03:08:53.005Z,2.00
2023-04-02T03:14:23.946Z,2.40
2023-04-02T03:20:00.043Z,2.00
2023-04-02T03:25:37.271Z,2.00
2023-04-02T03:31:08.078Z,1.90
2023-04-02T03:36:44.671Z,2.10
2023-04-02T03:42:15.799Z,2.00
2023-04-02T03:47:55.480Z,2.60
2023-04-02T03:53:23.021Z,2.20
2023-04-02T03:58:55.118Z,2.10
2023-04-02T04:04:28.678Z,2.40
2023-04-02T04:10:00.119Z,2.10
2023-04-02T04:15:34.869Z,2.40
2023-04-02T04:21:10.397Z,2.30
2023-04-02T04:26:46.671Z,2.00
2023-04-02T04:32:15.917Z,2.10
2023-04-02T04:37:46.956Z,2.00
2023-04-02T04:43:18.917Z,2.10
2023-04-02T04:48:50.185Z,2.00
2023-04-02T04:54:16.687Z,2.20
2023-04-02T04:59:51.093Z,2.00
2023-04-02T05:05:16.890Z,1.90
2023-04-02T05:10:58.607Z,2.00
2023-04-02T05:16:34.851Z,1.80
2023-04-02T05:22:07.614Z,1.90
2023-04-02T05:27:48.798Z,1.60
2023-04-02T05:33:20.778Z,1.40
2023-04-02T05:38:52.183Z,1.50
2023-04-02T05:44:30.104Z,1.30
2023-04-02T05:50:03.872Z,1.50
2023-04-02T05:55:50.996Z,1.40
2023-04-02T06:01:32.756Z,1.80
2023-04-02T06:07:15.306Z,1.20
2023-04-02T06:12:49.015Z,1.30
2023-04-02T06:18:22.232Z,1.60
2023-04-02T06:23:52.390Z,1.30
2023-04-02T06:29:27.907Z,1.50
2023-04-02T06:34:56.447Z,1.50
2023-04-02T06:40:24.093Z,1.10
2023-04-02T06:45:54.724Z,1.10
2023-04-02T06:51:25.961Z,1.30
2023-04-02T06:57:01.996Z,1.10
2023-04-02T07:02:43.727Z,1.30
2023-04-02T07:08:09.455Z,1.40
2023-04-02T07:13:45.287Z,1.00
2023-04-02T07:19:11.700Z,1.00
2023-04-02T07:24:37.485Z,1.00
2023-04-02T07:29:56.119Z,0.90
2023-04-02T07:35:21.813Z,1.10
2023-04-02T07:40:47.584Z,1.10
2023-04-02T07:46:13.302Z,1.30
2023-04-02T07:51:41.390Z,1.30
2023-04-02T07:57:07.173Z,1.10
2023-04-02T08:02:43.598Z,1.10
2023-04-02T08:08:15.528Z,1.10
2023-04-02T08:13:41.262Z,1.50
2023-04-02T08:19:07.239Z,1.30
2023-04-02T08:24:26.700Z,1.70
2023-04-02T08:29:52.669Z,1.10
2023-04-02T08:35:18.349Z,1.40
2023-04-02T08:40:49.456Z,1.40
2023-04-02T08:46:28.458Z,1.30
2023-04-02T08:51:56.502Z,1.50
2023-04-02T08:57:27.722Z,1.30
2023-04-02T09:03:00.512Z,1.40
2023-04-02T09:08:35.696Z,1.30
2023-04-02T09:14:05.592Z,1.20
2023-04-02T09:19:42.195Z,1.00
2023-04-02T09:25:13.455Z,1.40
2023-04-02T09:30:53.815Z,1.30
2023-04-02T09:36:20.151Z,0.80
2023-04-02T09:41:59.079Z,1.10
2023-04-02T09:47:47.289Z,0.80
2023-04-02T09:53:14.401Z,1.00
2023-04-02T09:58:40.217Z,1.80
2023-04-02T10:04:05.996Z,2.00
2023-04-02T10:09:51.002Z,1.50
2023-04-02T10:15:18.032Z,1.30
2023-04-02T10:20:51.313Z,3.10
2023-04-02T10:26:29.536Z,1.10
2023-04-02T10:32:07.557Z,1.40
2023-04-02T10:37:54.729Z,1.10
2023-04-02T10:43:51.411Z,1.00
2023-04-02T10:49:30.035Z,1.30
2023-04-02T10:55:01.724Z,1.60
2023-04-02T11:00:42.813Z,1.70
2023-04-02T11:06:12.100Z,1.40
2023-04-02T11:11:41.818Z,1.30
2023-04-02T11:17:10.532Z,1.10
2023-04-02T11:22:40.893Z,1.10
2023-04-02T11:28:06.823Z,1.20
2023-04-02T11:34:02.956Z,1.60
2023-04-02T11:39:32.092Z,1.50
2023-04-02T11:44:57.945Z,1.40
2023-04-02T11:50:25.980Z,1.30
2023-04-02T11:55:53.793Z,1.40
2023-04-02T12:01:50.693Z,1.10
2023-04-02T12:07:37.422Z,1.40
2023-04-02T12:13:03.416Z,1.10
2023-04-02T12:18:36.498Z,0.90
2023-04-02T12:24:05.246Z,1.00
2023-04-02T12:29:44.618Z,1.20
2023-04-02T12:35:12.278Z,1.60
2023-04-02T12:40:40.118Z,1.30
2023-04-02T12:46:13.436Z,0.80
2023-04-02T12:51:39.502Z,0.80
2023-04-02T12:57:05.988Z,1.30
2023-04-02T13:02:41.147Z,1.30
2023-04-02T13:08:09.099Z,1.40
2023-04-02T13:13:42.807Z,0.90
2023-04-02T13:19:10.454Z,1.10
2023-04-02T13:24:42.521Z,0.80
2023-04-02T13:30:08.169Z,0.90
2023-04-02T13:35:33.879Z,1.00
2023-04-02T13:40:59.806Z,0.80
2023-04-02T13:46:28.097Z,0.90
2023-04-02T13:51:59.042Z,0.90
2023-04-02T13:57:25.018Z,1.50
2023-04-02T14:02:51.008Z,0.90
2023-04-02T14:08:29.411Z,1.10
2023-04-02T14:14:16.173Z,1.00
2023-04-02T14:20:04.895Z,1.00
2023-04-02T14:25:39.073Z,0.90
2023-04-02T14:31:21.949Z,1.00
2023-04-02T14:36:55.761Z,1.90
2023-04-02T14:42:20.877Z,0.80
2023-04-02T14:47:51.920Z,0.80
2023-04-02T14:53:22.051Z,1.00
2023-04-02T14:58:54.947Z,0.80
2023-04-02T15:04:24.784Z,0.90
2023-04-02T15:09:58.911Z,1.00
2023-04-02T15:15:41.242Z,1.10
2023-04-02T15:26:51.819Z,0.80
2023-04-02T15:32:29.241Z,1.30
2023-04-02T15:38:00.063Z,1.30
2023-04-02T15:43:39.998Z,1.00
2023-04-02T15:49:30.632Z,0.90
2023-04-02T15:55:20.262Z,1.30
2023-04-02T16:00:48.895Z,1.10
2023-04-02T16:06:32.038Z,1.20
2023-04-02T16:11:57.835Z,1.50
2023-04-02T16:17:27.285Z,2.10
2023-04-02T16:23:00.463Z,2.10
2023-04-02T16:28:41.875Z,1.20
2023-04-02T16:34:22.012Z,1.10
2023-04-02T16:39:55.327Z,1.40
2023-04-02T16:45:36.888Z,0.90
2023-04-02T16:51:13.681Z,1.00
2023-04-02T16:56:54.096Z,1.30
2023-04-02T17:02:34.599Z,1.00
2023-04-02T17:08:03.524Z,0.90
2023-04-02T17:13:44.303Z,1.10
2023-04-02T17:19:13.502Z,1.30
2023-04-02T17:24:44.266Z,1.30
2023-04-02T17:30:14.991Z,1.30
2023-04-02T17:35:50.084Z,1.50
2023-04-02T17:41:24.883Z,1.00
2023-04-02T17:46:55.516Z,1.20
2023-04-02T17:52:30.952Z,1.30
2023-04-02T17:58:11.189Z,1.50
2023-04-02T18:04:02.492Z,1.00
2023-04-02T18:09:38.883Z,2.00
2023-04-02T18:15:23.059Z,1.40
2023-04-02T18:20:56.803Z,1.70
2023-04-02T18:26:32.794Z,1.70
2023-04-02T18:32:06.691Z,1.20
2023-04-02T18:37:44.035Z,1.20
2023-04-02T18:43:20.444Z,1.30
2023-04-02T18:49:00.727Z,2.00
2023-04-02T18:54:37.096Z,2.80
2023-04-02T19:00:09.340Z,1.30
2023-04-02T19:05:43.883Z,1.80
2023-04-02T19:11:14.093Z,1.30
2023-04-02T19:17:01.784Z,1.30
2023-04-02T19:22:38.506Z,1.30
2023-04-02T19:28:16.004Z,1.50
2023-04-02T19:33:52.227Z,1.10
2023-04-02T19:39:33.295Z,1.50
2023-04-02T19:45:03.259Z,1.80
2023-04-02T19:50:31.016Z,1.40
2023-04-02T19:55:56.869Z,1.30
2023-04-02T20:01:23.392Z,2.30
2023-04-02T20:06:49.592Z,2.30
2023-04-02T20:12:15.572Z,1.60
2023-04-02T20:17:33.585Z,1.60
2023-04-02T20:22:59.453Z,1.20
2023-04-02T20:28:25.472Z,1.50
2023-04-02T20:33:51.209Z,1.30
2023-04-02T20:39:17.151Z,1.40
2023-04-02T20:44:36.312Z,1.50
2023-04-02T20:50:01.955Z,1.30
2023-04-02T20:55:30.852Z,1.30
2023-04-02T21:00:56.454Z,1.10
2023-04-02T21:06:38.901Z,1.50
2023-04-02T21:12:04.863Z,1.30
2023-04-02T21:17:30.508Z,1.20
2023-04-02T21:22:56.433Z,1.40
2023-04-02T21:28:22.152Z,1.50
2023-04-02T21:33:47.805Z,1.60
2023-04-02T21:39:15.580Z,1.70
2023-04-02T21:44:43.974Z,1.30
2023-04-02T21:50:09.836Z,1.30
2023-04-02T21:55:36.051Z,1.10
2023-04-02T22:01:01.838Z,1.20
2023-04-02T22:06:31.623Z,1.40
2023-04-02T22:12:00.424Z,1.40
2023-04-02T22:17:26.072Z,1.30
2023-04-02T22:22:44.428Z,1.70
2023-04-02T22:28:10.159Z,1.20
2023-04-02T22:33:36.328Z,1.40
2023-04-02T22:39:02.483Z,1.10
2023-04-02T22:44:28.199Z,1.40
2023-04-02T22:49:49.302Z,1.30
2023-04-02T22:55:15.176Z,1.50
2023-04-02T23:00:41.183Z,1.20
2023-04-02T23:06:17.495Z,1.40
2023-04-02T23:11:45.045Z,1.30
2023-04-02T23:17:11.042Z,1.10
2023-04-02T23:22:36.906Z,1.30
2023-04-02T23:28:02.788Z,1.00
2023-04-02T23:33:28.597Z,1.50
2023-04-02T23:38:54.246Z,1.40
2023-04-02T23:44:22.816Z,1.80
2023-04-02T23:49:48.484Z,1.60
2023-04-02T23:55:14.539Z,1.20
